Time;durP1;ratioP1;P1;durP2;ratioP2;P2;SDS_P1;SDS_P2;PMS_P1;PMS_P2;Temp;Humidity;BMP_temperature;BMP_pressure;BME280_temperature;BME280_humidity;BME280_pressure;Samples;Min_cycle;Max_cycle;Signal;HPM_P1;HPM_P2
2022/04/26 03:36:11;;;;;;;28.17;15.98;;;8.90;99.90;;;;;;4965551;28;20214;-87
2022/04/26 03:38:41;;;;;;;35.28;18.17;;;8.90;99.90;;;;;;4970734;28;20176;-88
2022/04/26 03:41:07;;;;;;;28.55;16.80;;;9.00;99.90;;;;;;4968409;28;20251;-88
2022/04/26 03:43:33;;;;;;;29.37;17.90;;;9.10;99.90;;;;;;4972882;28;20309;-88
2022/04/26 03:45:58;;;;;;;35.30;19.57;;;9.10;99.90;;;;;;4967018;28;20207;-88
2022/04/26 03:48:24;;;;;;;32.50;17.77;;;9.10;99.90;;;;;;4971277;28;20183;-86
2022/04/26 03:50:50;;;;;;;37.53;20.10;;;9.00;99.90;;;;;;4969810;28;20215;-89
2022/04/26 03:53:15;;;;;;;46.77;20.53;;;9.00;99.90;;;;;;4970674;28;20469;-88
2022/04/26 03:55:41;;;;;;;33.83;18.67;;;9.10;99.90;;;;;;4968584;28;20347;-88
2022/04/26 03:58:07;;;;;;;37.90;21.70;;;9.10;99.90;;;;;;4969913;28;20191;-87
2022/04/26 04:00:32;;;;;;;50.80;23.97;;;9.20;99.90;;;;;;4965778;28;20188;-87
2022/04/26 04:02:58;;;;;;;40.33;21.40;;;9.30;99.90;;;;;;4972680;28;20265;-89
2022/04/26 04:05:23;;;;;;;42.93;21.47;;;9.20;99.90;;;;;;4969009;28;20211;-88
2022/04/26 04:07:49;;;;;;;46.37;21.60;;;9.10;99.90;;;;;;4966935;28;20188;-88
2022/04/26 04:10:15;;;;;;;38.87;20.50;;;;;;;;;;4970046;28;20226;-89
2022/04/26 04:12:41;;;;;;;48.20;22.70;;;;;;;;;;4988955;28;20261;-89
2022/04/26 04:15:07;;;;;;;45.20;21.87;;;9.10;99.90;;;;;;4967951;28;20463;-88
2022/04/26 04:17:33;;;;;;;48.28;22.38;;;;;;;;;;4986086;28;20431;-87
2022/04/26 04:19:59;;;;;;;44.80;21.73;;;;;;;;;;4982736;28;20670;-88
2022/04/26 04:22:24;;;;;;;46.17;21.23;;;9.10;99.90;;;;;;4985335;28;22249;-88
2022/04/26 04:24:50;;;;;;;44.27;21.17;;;9.00;99.90;;;;;;4968086;28;20536;-87
2022/04/26 04:27:16;;;;;;;43.20;20.17;;;9.10;99.90;;;;;;4973479;28;20247;-86
2022/04/26 04:29:41;;;;;;;37.33;20.30;;;9.10;99.90;;;;;;4969934;28;20267;-87
2022/04/26 04:32:07;;;;;;;39.10;20.80;;;9.10;99.90;;;;;;4969163;28;20219;-87
2022/04/26 04:34:33;;;;;;;37.70;20.70;;;;;;;;;;4983074;28;20215;-87
2022/04/26 04:36:58;;;;;;;38.17;20.40;;;9.10;99.90;;;;;;4967015;28;20427;-88
2022/04/26 04:39:27;;;;;;;38.27;19.17;;;9.20;99.90;;;;;;4975329;28;20462;-87
2022/04/26 04:41:53;;;;;;;33.65;17.05;;;;;;;;;;4968438;28;20607;-87
2022/04/26 04:44:19;;;;;;;40.87;19.63;;;9.20;99.90;;;;;;4986658;28;20207;-87
2022/04/26 04:46:45;;;;;;;36.13;18.58;;;9.20;99.90;;;;;;4973251;28;21086;-87
2022/04/26 04:49:11;;;;;;;29.73;16.88;;;9.20;99.90;;;;;;4973340;28;20259;-88
2022/04/26 04:51:37;;;;;;;32.53;18.25;;;9.20;99.90;;;;;;4974537;28;20208;-86
2022/04/26 04:54:04;;;;;;;35.27;17.80;;;;;;;;;;4971213;28;20206;-88
2022/04/26 04:56:33;;;;;;;29.48;16.80;;;9.20;99.90;;;;;;4984590;28;20184;-87
2022/04/26 04:58:58;;;;;;;30.20;17.60;;;9.30;99.90;;;;;;4964912;28;20376;-87
2022/04/26 05:01:24;;;;;;;32.27;17.43;;;9.40;99.90;;;;;;4967954;28;20187;-86
2022/04/26 05:03:50;;;;;;;32.30;17.73;;;9.60;99.90;;;;;;4965258;28;20270;-87
2022/04/26 05:06:16;;;;;;;28.23;15.98;;;9.60;99.90;;;;;;4972051;28;20212;-87
2022/04/26 05:08:43;;;;;;;27.55;16.77;;;9.50;99.90;;;;;;4963468;28;20211;-87
2022/04/26 05:11:10;;;;;;;30.00;17.67;;;9.50;99.90;;;;;;4963516;28;20289;-87
2022/04/26 05:13:36;;;;;;;26.27;16.15;;;;;;;;;;4970873;28;20634;-87
2022/04/26 05:16:01;;;;;;;22.15;15.10;;;9.70;99.90;;;;;;4986603;28;20303;-87
2022/04/26 05:18:28;;;;;;;35.67;18.50;;;9.70;99.90;;;;;;4967463;28;20255;-87
2022/04/26 05:20:54;;;;;;;34.13;18.75;;;9.60;99.90;;;;;;4979196;28;20195;-87
2022/04/26 05:26:03;;;;;;;50.38;24.17;;;9.60;99.90;;;;;;4971572;28;20493;-88
2022/04/26 05:28:29;;;;;;;42.37;22.47;;;9.70;99.90;;;;;;4985255;28;20184;-88
2022/04/26 05:30:55;;;;;;;52.50;24.10;;;9.70;99.90;;;;;;4983589;28;20203;-87
2022/04/26 05:33:21;;;;;;;38.03;21.17;;;9.80;99.90;;;;;;4980574;28;20203;-88
2022/04/26 05:35:48;;;;;;;38.28;20.77;;;9.90;99.90;;;;;;4989146;28;20533;-87
2022/04/26 05:38:15;;;;;;;34.80;20.40;;;9.80;99.90;;;;;;4968484;28;20194;-87
2022/04/26 05:40:41;;;;;;;41.63;23.50;;;9.90;99.90;;;;;;4959011;28;20195;-88
2022/04/26 05:43:07;;;;;;;52.58;24.92;;;9.80;99.90;;;;;;4980519;28;20191;-89
2022/04/26 05:45:33;;;;;;;60.67;29.53;;;9.90;99.90;;;;;;4959209;28;20199;-88
2022/04/26 05:47:58;;;;;;;59.43;27.60;;;10.00;99.90;;;;;;4969098;28;20282;-87
2022/04/26 05:50:24;;;;;;;49.67;27.90;;;10.00;99.90;;;;;;4965441;28;20294;-87
2022/04/26 05:52:49;;;;;;;47.63;27.67;;;10.00;99.90;;;;;;4981060;28;21357;-89
2022/04/26 05:55:15;;;;;;;57.20;27.70;;;10.00;99.90;;;;;;4978135;28;20208;-87
2022/04/26 05:57:42;;;;;;;57.00;27.60;;;10.00;99.90;;;;;;4959565;28;20257;-88
2022/04/26 06:00:12;;;;;;;43.40;25.40;;;10.00;99.90;;;;;;4983165;28;20267;-89
2022/04/26 06:02:39;;;;;;;56.03;28.38;;;9.90;99.90;;;;;;4974009;28;20191;-89
2022/04/26 06:05:05;;;;;;;57.13;28.50;;;9.80;99.90;;;;;;4963476;28;20578;-89
2022/04/26 06:07:31;;;;;;;48.00;27.67;;;9.80;99.90;;;;;;4967121;28;20180;-89
2022/04/26 06:09:57;;;;;;;47.25;26.48;;;9.80;99.90;;;;;;4970488;28;20271;-88
2022/04/26 06:12:29;;;;;;;44.07;23.57;;;9.80;99.90;;;;;;4973393;28;20366;-89
2022/04/26 06:14:55;;;;;;;49.92;26.17;;;9.80;99.90;;;;;;4970654;28;20298;-89
2022/04/26 06:17:21;;;;;;;54.60;28.45;;;9.90;99.90;;;;;;4965626;28;20188;-89
2022/04/26 06:19:47;;;;;;;48.87;27.87;;;10.00;99.90;;;;;;4967349;28;20188;-89
2022/04/26 06:22:13;;;;;;;46.00;25.30;;;10.10;99.90;;;;;;4977497;28;20443;-89
2022/04/26 06:24:38;;;;;;;38.20;21.40;;;10.10;99.90;;;;;;4984524;28;20212;-89
2022/04/26 06:27:04;;;;;;;46.33;24.90;;;;;;;;;;4967642;28;20187;-87
2022/04/26 06:29:30;;;;;;;39.33;22.53;;;;;;;;;;4983823;28;20235;-87
2022/04/26 06:31:56;;;;;;;32.92;20.63;;;;;;;;;;4985960;28;20470;-87
2022/04/26 06:34:22;;;;;;;35.93;20.30;;;9.50;99.90;;;;;;4984037;28;20208;-87
2022/04/26 06:36:48;;;;;;;30.83;18.47;;;9.40;99.90;;;;;;4969779;28;20435;-87
2022/04/26 06:39:13;;;;;;;34.70;17.97;;;9.40;99.90;;;;;;4964540;28;20192;-86
2022/04/26 06:41:38;;;;;;;30.97;17.87;;;9.30;99.90;;;;;;4972498;28;20188;-87
2022/04/26 06:44:04;;;;;;;33.03;18.60;;;9.20;99.90;;;;;;4965642;28;20282;-86
2022/04/26 06:46:31;;;;;;;28.20;16.90;;;9.20;99.90;;;;;;4966068;28;20187;-86
2022/04/26 06:49:00;;;;;;;29.70;18.00;;;9.20;99.90;;;;;;4955990;28;20440;-85
2022/04/26 06:51:30;;;;;;;26.80;17.50;;;9.30;99.90;;;;;;4979079;28;20283;-86
2022/04/26 06:53:55;;;;;;;30.27;17.33;;;9.30;99.90;;;;;;4962464;28;20187;-86
2022/04/26 06:56:21;;;;;;;27.53;17.50;;;9.30;99.90;;;;;;4967208;28;20218;-86
2022/04/26 06:58:47;;;;;;;39.15;19.80;;;9.50;99.90;;;;;;4972376;28;20267;-89
2022/04/26 07:01:13;;;;;;;26.27;17.70;;;9.70;99.90;;;;;;4956824;28;20316;-89
2022/04/26 07:03:39;;;;;;;24.92;16.33;;;9.80;99.90;;;;;;4961854;28;20191;-89
2022/04/26 07:06:04;;;;;;;22.93;15.23;;;10.00;99.90;;;;;;4964687;28;20749;-88
2022/04/26 07:08:30;;;;;;;22.80;16.27;;;9.90;99.90;;;;;;4970612;28;20207;-88
2022/04/26 07:10:56;;;;;;;30.00;17.47;;;;;;;;;;4962670;28;20234;-88
2022/04/26 07:13:22;;;;;;;25.20;17.97;;;10.10;99.90;;;;;;4966693;28;20190;-89
2022/04/26 07:15:48;;;;;;;20.63;14.13;;;;;;;;;;4980238;28;103129;-89
2022/04/26 07:18:13;;;;;;;21.70;15.43;;;10.10;99.90;;;;;;4971238;28;20218;-86
2022/04/26 07:20:40;;;;;;;25.63;16.43;;;9.90;99.90;;;;;;4971696;28;20435;-87
2022/04/26 07:23:06;;;;;;;26.75;17.20;;;9.80;99.90;;;;;;4981606;28;20198;-89
2022/04/26 07:25:32;;;;;;;20.98;14.73;;;10.30;99.90;;;;;;4961151;28;20219;-89
2022/04/26 07:27:58;;;;;;;17.13;12.97;;;;;;;;;;4963737;28;21723;-88
2022/04/26 07:30:24;;;;;;;18.27;12.93;;;13.20;99.90;;;;;;4980100;28;20651;-88
2022/04/26 07:35:34;;;;;;;18.17;12.57;;;14.40;99.90;;;;;;4967284;28;20222;-87
2022/04/26 07:38:06;;;;;;;15.30;12.60;;;14.90;99.90;;;;;;4958135;28;20183;-88
2022/04/26 07:40:33;;;;;;;19.63;12.93;;;16.30;99.90;;;;;;4982064;28;20191;-89
2022/04/26 07:42:59;;;;;;;18.50;14.67;;;;;;;;;;4969241;28;20933;-89
2022/04/26 07:45:25;;;;;;;20.85;14.20;;;;;;;;;;4985036;28;20447;-88
2022/04/26 07:47:51;;;;;;;19.70;13.55;;;13.30;99.90;;;;;;4968006;28;20224;-88
2022/04/26 07:50:17;;;;;;;18.10;14.43;;;;;;;;;;4978666;28;20227;-87
2022/04/26 07:52:43;;;;;;;18.60;14.10;;;;;;;;;;4984683;28;20434;-88
2022/04/26 07:55:10;;;;;;;17.80;11.90;;;15.60;99.90;;;;;;4977534;28;20451;-88
2022/04/26 07:57:38;;;;;;;16.63;12.63;;;15.20;99.90;;;;;;4968110;28;20426;-88
2022/04/26 08:00:05;;;;;;;16.03;12.90;;;14.90;99.90;;;;;;4968139;28;20444;-88
2022/04/26 08:02:31;;;;;;;16.83;13.43;;;;;;;;;;4965015;28;20501;-88
2022/04/26 08:05:01;;;;;;;21.63;16.60;;;14.20;99.90;;;;;;4978028;28;20481;-88
2022/04/26 08:07:31;;;;;;;19.40;15.30;;;14.70;99.90;;;;;;4959425;28;21390;-88
2022/04/26 08:09:57;;;;;;;19.63;14.70;;;15.00;99.90;;;;;;4969910;28;20521;-88
2022/04/26 08:12:23;;;;;;;20.30;16.77;;;;;;;;;;4966656;28;20546;-88
2022/04/26 08:14:49;;;;;;;20.07;15.57;;;;;;;;;;4981987;28;20215;-88
2022/04/26 08:17:15;;;;;;;17.97;15.33;;;;;;;;;;4990055;28;20517;-87
2022/04/26 08:19:44;;;;;;;16.87;13.90;;;15.80;99.90;;;;;;4989461;28;20514;-87
2022/04/26 08:22:10;;;;;;;18.97;14.20;;;;;;;;;;4973228;28;20435;-88
2022/04/26 08:27:24;;;;;;;20.15;14.35;;;13.50;99.90;;;;;;4974343;28;20430;-89
2022/04/26 08:29:51;;;;;;;18.00;13.50;;;;;;;;;;4971981;28;20186;-88
2022/04/26 08:32:16;;;;;;;17.65;14.10;;;12.50;99.90;;;;;;4989953;28;20212;-88
2022/04/26 08:34:42;;;;;;;22.03;17.43;;;;;;;;;;4972794;28;20215;-87
2022/04/26 08:37:11;;;;;;;22.50;16.30;;;11.60;99.90;;;;;;4973628;28;20198;-89
2022/04/26 08:39:36;;;;;;;20.98;15.93;;;11.70;99.90;;;;;;4985131;28;20505;-89
2022/04/26 08:42:04;;;;;;;21.40;17.10;;;11.50;99.90;;;;;;4971723;28;20180;-88
2022/04/26 08:44:29;;;;;;;23.92;17.95;;;11.40;99.90;;;;;;4971461;28;20227;-88
2022/04/26 08:52:26;;;;;;;21.08;15.20;;;11.80;99.90;;;;;;4969660;28;20378;-88
2022/04/26 08:54:52;;;;;;;18.23;13.35;;;11.80;99.90;;;;;;4970601;28;20213;-89
2022/04/26 08:57:18;;;;;;;18.27;13.90;;;;;;;;;;4986617;28;20270;-88
2022/04/26 08:59:48;;;;;;;16.67;12.77;;;12.50;99.90;;;;;;4983725;28;20235;-88
2022/04/26 09:02:18;;;;;;;14.27;12.77;;;13.00;99.90;;;;;;4965751;28;20976;-88
2022/04/26 09:04:45;;;;;;;20.23;12.10;;;13.80;99.90;;;;;;4973158;28;20461;-88
2022/04/26 09:07:12;;;;;;;11.30;9.67;;;14.30;99.90;;;;;;4962216;28;20555;-87
2022/04/26 09:09:41;;;;;;;15.87;11.53;;;14.60;99.90;;;;;;4962526;28;20431;-88
2022/04/26 09:12:11;;;;;;;15.03;12.90;;;14.80;99.90;;;;;;4964780;28;20610;-87
2022/04/26 09:14:50;;;;;;;17.77;13.40;;;14.40;99.90;;;;;;4962629;28;22003;-87
2022/04/26 09:17:24;;;;;;;18.80;14.77;;;14.00;99.90;;;;;;4963714;28;20504;-88
2022/04/26 09:19:53;;;;;;;12.47;11.17;;;13.80;99.90;;;;;;4958881;28;20501;-87
2022/04/26 09:22:21;;;;;;;14.90;11.30;;;12.90;99.90;;;;;;4977502;28;20430;-88
2022/04/26 09:25:16;;;;;;;14.15;11.23;;;12.90;99.90;;;;;;4958129;28;20707;-87
2022/04/26 09:27:42;;;;;;;14.57;11.00;;;12.70;99.90;;;;;;4943682;28;21486;-87
2022/04/26 09:30:08;;;;;;;15.80;11.90;;;12.60;99.90;;;;;;4966621;28;20191;-87
2022/04/26 09:32:49;;;;;;;19.38;12.13;;;12.60;99.90;;;;;;4961679;28;20847;-87
2022/04/26 09:35:28;;;;;;;15.63;12.40;;;12.20;99.90;;;;;;4974142;28;20637;-87
2022/04/26 09:37:54;;;;;;;15.25;10.43;;;12.10;99.90;;;;;;4963443;28;20318;-88
2022/04/26 09:40:20;;;;;;;16.97;13.20;;;12.30;99.90;;;;;;4965288;28;20210;-87
2022/04/26 09:42:48;;;;;;;12.77;11.43;;;;;;;;;;4961175;28;20191;-87
2022/04/26 09:45:15;;;;;;;12.73;10.63;;;12.90;99.90;;;;;;4959006;28;20215;-88
2022/04/26 09:47:41;;;;;;;9.53;7.63;;;15.30;99.90;;;;;;4976852;28;20224;-88
2022/04/26 09:50:09;;;;;;;12.20;7.63;;;15.30;99.90;;;;;;4966699;28;20856;-88
2022/04/26 09:52:36;;;;;;;7.43;6.63;;;;;;;;;;4966241;28;20438;-89
2022/04/26 09:55:06;;;;;;;8.43;4.83;;;16.10;99.90;;;;;;4965990;28;20465;-88
2022/04/26 09:57:33;;;;;;;6.37;5.10;;;17.00;99.90;;;;;;4962751;28;20435;-88
2022/04/26 10:00:00;;;;;;;8.07;6.03;;;15.00;99.90;;;;;;4984308;28;20430;-88
2022/04/26 10:02:31;;;;;;;8.17;5.80;;;14.00;99.90;;;;;;4989770;28;20769;-88
2022/04/26 10:05:03;;;;;;;11.47;8.30;;;14.30;99.90;;;;;;4982157;28;20454;-88
2022/04/26 10:07:35;;;;;;;10.10;7.40;;;14.30;99.90;;;;;;4965749;28;20981;-87
2022/04/26 10:10:03;;;;;;;8.63;7.73;;;16.80;99.90;;;;;;4975690;28;20446;-88
2022/04/26 10:12:30;;;;;;;8.70;7.80;;;15.50;99.90;;;;;;4967083;28;20513;-88
2022/04/26 10:14:56;;;;;;;15.70;7.50;;;;;;;;;;4967924;28;20581;-88
2022/04/26 10:17:22;;;;;;;11.10;8.97;;;15.70;99.90;;;;;;4962131;28;20534;-87
2022/04/26 10:19:48;;;;;;;11.80;9.00;;;15.40;99.90;;;;;;4963929;28;20522;-88
2022/04/26 10:22:18;;;;;;;10.40;8.50;;;;;;;;;;4966025;28;20318;-87
2022/04/26 10:25:11;;;;;;;18.20;8.63;;;15.70;99.90;;;;;;4981710;28;21105;-88
2022/04/26 10:27:37;;;;;;;12.20;8.20;;;15.20;99.90;;;;;;4966670;28;20434;-87
2022/04/26 10:30:03;;;;;;;8.53;6.20;;;15.10;99.90;;;;;;4959596;28;21097;-88
2022/04/26 10:32:34;;;;;;;6.30;5.27;;;13.40;99.90;;;;;;4955074;28;20318;-88
2022/04/26 10:35:25;;;;;;;6.30;5.30;;;12.90;99.90;;;;;;4963834;28;20513;-86
2022/04/26 10:38:16;;;;;;;5.90;5.15;;;12.60;99.90;;;;;;4964346;28;20568;-87
2022/04/26 10:41:15;;;;;;;12.43;7.38;;;12.70;99.90;;;;;;4966444;28;20188;-87
2022/04/26 10:44:13;;;;;;;9.85;6.53;;;12.10;99.90;;;;;;4941790;28;20250;-85
2022/04/26 10:46:44;;;;;;;13.25;7.57;;;12.40;99.90;;;;;;4962755;28;20226;-87
2022/04/26 10:49:25;;;;;;;10.43;8.20;;;12.00;99.90;;;;;;4962616;28;20261;-87
2022/04/26 10:51:55;;;;;;;13.18;8.35;;;12.10;99.90;;;;;;4978521;28;20210;-88
2022/04/26 10:54:45;;;;;;;7.32;5.28;;;11.50;99.90;;;;;;4962967;28;20268;-89
2022/04/26 10:57:25;;;;;;;8.95;6.05;;;10.20;99.90;;;;;;4962295;28;20215;-88
2022/04/26 11:00:07;;;;;;;8.63;5.20;;;9.60;99.90;;;;;;4979467;28;20590;-88
2022/04/26 11:02:35;;;;;;;9.25;4.95;;;9.10;99.90;;;;;;4967482;28;20222;-88
2022/04/26 11:05:14;;;;;;;5.85;4.22;;;9.20;99.90;;;;;;4959716;28;21114;-89
2022/04/26 11:07:49;;;;;;;8.02;6.15;;;9.30;99.90;;;;;;4981468;28;20919;-88
2022/04/26 11:10:18;;;;;;;9.27;5.72;;;9.40;99.90;;;;;;4963194;28;20202;-88
2022/04/26 11:12:44;;;;;;;13.13;6.47;;;9.30;99.90;;;;;;4976343;28;20255;-87
2022/04/26 11:15:13;;;;;;;7.50;5.63;;;9.50;99.90;;;;;;4974231;28;20302;-89
2022/04/26 11:17:40;;;;;;;8.43;6.38;;;9.20;99.90;;;;;;4965257;28;20180;-89
2022/04/26 11:20:18;;;;;;;8.52;6.05;;;9.50;99.90;;;;;;4964081;28;20266;-88
2022/04/26 11:22:49;;;;;;;8.13;4.82;;;9.70;99.90;;;;;;4968096;28;20218;-87
2022/04/26 11:28:06;;;;;;;4.65;4.15;;;9.90;99.90;;;;;;4972346;28;20199;-90
2022/04/26 11:30:35;;;;;;;4.38;3.97;;;10.00;99.90;;;;;;4967966;28;20195;-88
2022/04/26 11:33:25;;;;;;;7.15;4.45;;;10.00;99.90;;;;;;4963740;28;20579;-87
2022/04/26 11:35:57;;;;;;;4.28;3.88;;;10.20;99.90;;;;;;4966476;28;20219;-89
2022/04/26 11:38:23;;;;;;;4.75;4.18;;;10.70;99.90;;;;;;4965108;28;20183;-87
2022/04/26 11:40:58;;;;;;;3.78;3.15;;;11.00;99.90;;;;;;4966830;28;20192;-88
2022/04/26 11:43:28;;;;;;;7.65;3.40;;;11.00;99.90;;;;;;4960716;28;20298;-88
2022/04/26 11:45:55;;;;;;;5.00;3.10;;;11.40;99.90;;;;;;4977780;28;20594;-87
2022/04/26 11:48:33;;;;;;;5.90;2.95;;;12.30;99.90;;;;;;4963870;28;20184;-87
2022/04/26 11:51:00;;;;;;;4.65;3.28;;;12.30;99.90;;;;;;4963348;28;20214;-87
2022/04/26 11:53:29;;;;;;;3.92;3.30;;;12.70;99.90;;;;;;4963108;28;20270;-88
2022/04/26 11:55:56;;;;;;;4.18;3.38;;;13.40;99.90;;;;;;4963524;28;20219;-87
2022/04/26 11:58:23;;;;;;;3.83;3.38;;;13.40;99.90;;;;;;4966684;28;20720;-88
2022/04/26 12:01:15;;;;;;;5.10;4.15;;;13.40;99.90;;;;;;4959593;28;21035;-87
2022/04/26 12:03:49;;;;;;;6.13;3.50;;;14.10;99.90;;;;;;4952907;28;20935;-87
2022/04/26 12:06:18;;;;;;;8.10;4.43;;;13.80;99.90;;;;;;4967040;28;20461;-88
2022/04/26 12:08:50;;;;;;;8.63;5.30;;;13.80;99.90;;;;;;4960864;28;20434;-87
2022/04/26 12:11:23;;;;;;;5.30;4.57;;;13.30;99.90;;;;;;4962492;28;22118;-88
2022/04/26 12:14:06;;;;;;;8.15;4.63;;;12.90;99.90;;;;;;4962025;28;20808;-87
2022/04/26 12:16:35;;;;;;;5.82;4.50;;;12.40;99.90;;;;;;4979059;28;20229;-88
2022/04/26 12:19:03;;;;;;;10.30;4.78;;;12.20;99.90;;;;;;4976306;28;20191;-87
2022/04/26 12:21:46;;;;;;;7.43;5.55;;;12.40;99.90;;;;;;4966831;28;20212;-89
2022/04/26 12:24:31;;;;;;;9.60;5.28;;;12.00;99.90;;;;;;4965467;28;20186;-86
2022/04/26 12:27:11;;;;;;;8.10;4.65;;;12.00;99.90;;;;;;4962021;28;20192;-86
2022/04/26 12:29:36;;;;;;;19.60;6.03;;;11.50;99.90;;;;;;4982239;28;20191;-87
2022/04/26 12:32:08;;;;;;;4.90;4.40;;;10.80;99.90;;;;;;4962282;28;20258;-86
2022/04/26 12:34:35;;;;;;;4.53;3.50;;;10.10;99.90;;;;;;4969866;28;20230;-88
2022/04/26 12:37:16;;;;;;;5.85;2.15;;;10.00;99.90;;;;;;4987409;28;20200;-88
2022/04/26 12:39:48;;;;;;;1.63;1.50;;;9.00;99.90;;;;;;4984451;28;20191;-88
2022/04/26 12:42:17;;;;;;;3.35;1.63;;;8.90;99.90;;;;;;4987925;28;20220;-87
2022/04/26 12:44:54;;;;;;;2.80;1.23;;;8.90;99.90;;;;;;4971136;28;20211;-88
2022/04/26 12:50:33;;;;;;;2.08;1.50;;;9.00;99.90;;;;;;4972885;28;20187;-87
2022/04/26 12:53:28;;;;;;;1.55;1.35;;;9.00;99.90;;;;;;4967609;28;20203;-89
2022/04/26 12:55:54;;;;;;;3.67;2.08;;;;;;;;;;4964003;28;20238;-88
2022/04/26 12:58:42;;;;;;;2.53;1.92;;;9.60;99.90;;;;;;4969164;28;20184;-86
2022/04/26 13:01:09;;;;;;;2.90;2.42;;;10.00;99.90;;;;;;4959926;28;20179;-86
2022/04/26 13:03:36;;;;;;;3.80;2.50;;;10.50;99.90;;;;;;4972013;28;20183;-88
2022/04/26 13:06:17;;;;;;;4.82;3.60;;;10.50;99.90;;;;;;4971638;28;20231;-87
2022/04/26 13:08:44;;;;;;;4.55;3.90;;;10.60;99.90;;;;;;4967314;28;20282;-87
2022/04/26 13:11:10;;;;;;;4.10;3.13;;;;;;;;;;4967826;28;20749;-87
2022/04/26 13:13:40;;;;;;;5.05;4.10;;;11.50;99.90;;;;;;4970574;28;20291;-86
2022/04/26 13:16:08;;;;;;;3.70;2.20;;;11.70;99.90;;;;;;4969442;28;20211;-87
2022/04/26 13:18:34;;;;;;;3.20;2.00;;;;;;;;;;4966518;28;20215;-87
2022/04/26 13:21:01;;;;;;;3.70;2.47;;;;;;;;;;4970464;28;20188;-87
2022/04/26 13:23:29;;;;;;;2.38;2.17;;;12.20;99.90;;;;;;4969823;28;20183;-86
2022/04/26 13:25:57;;;;;;;3.50;2.40;;;12.60;99.90;;;;;;4980862;28;20294;-87
2022/04/26 13:28:23;;;;;;;3.53;1.98;;;;;;;;;;4968398;28;20175;-88
2022/04/26 13:30:49;;;;;;;2.80;2.20;;;;;;;;;;4966042;28;20320;-87
2022/04/26 13:33:15;;;;;;;2.67;2.20;;;;;;;;;;4963603;28;20227;-86
2022/04/26 13:35:42;;;;;;;3.03;2.20;;;;;;;;;;4965382;28;20529;-86
2022/04/26 13:38:12;;;;;;;2.10;2.00;;;11.70;99.90;;;;;;4961814;28;20218;-88
2022/04/26 13:40:39;;;;;;;3.95;2.95;;;12.00;99.90;;;;;;4958404;28;20211;-87
2022/04/26 13:43:05;;;;;;;3.38;2.03;;;12.00;99.90;;;;;;4966054;28;20195;-86
2022/04/26 13:45:32;;;;;;;1.40;1.25;;;;;;;;;;4965410;28;20200;-87
2022/04/26 13:47:59;;;;;;;2.58;1.45;;;;;;;;;;4962657;28;20184;-87
2022/04/26 13:50:25;;;;;;;1.33;0.82;;;;;;;;;;4969898;28;20176;-87
2022/04/26 13:52:51;;;;;;;1.83;1.23;;;;;;;;;;4968207;28;20203;-86
2022/04/26 13:55:17;;;;;;;1.67;1.07;;;;;;;;;;4967447;28;20546;-86
2022/04/26 13:57:44;;;;;;;1.73;1.60;;;;;;;;;;4963848;28;20525;-86
2022/04/26 14:00:11;;;;;;;2.40;1.70;;;12.10;99.90;;;;;;4965175;28;20198;-87
2022/04/26 14:02:37;;;;;;;1.52;1.17;;;;;;;;;;4986123;28;20180;-88
2022/04/26 14:05:04;;;;;;;1.25;1.05;;;12.10;99.90;;;;;;4977027;28;20204;-87
2022/04/26 14:07:30;;;;;;;1.45;1.10;;;12.20;99.90;;;;;;4971993;28;20211;-87
2022/04/26 14:09:56;;;;;;;3.30;2.13;;;;;;;;;;4992443;28;20263;-88
2022/04/26 14:12:22;;;;;;;2.13;1.80;;;;;;;;;;4975849;28;20242;-87
2022/04/26 14:23:01;;;;;;;3.60;2.20;;;12.80;99.90;;;;;;4975146;28;20286;-86
2022/04/26 14:25:26;;;;;;;4.30;1.70;;;;;;;;;;4979250;28;20279;-87
2022/04/26 14:27:52;;;;;;;3.63;1.30;;;;;;;;;;4969345;28;20188;-87
2022/04/26 14:30:18;;;;;;;3.80;2.63;;;;;;;;;;4966009;28;20537;-87
2022/04/26 14:32:45;;;;;;;3.10;2.25;;;;;;;;;;4966477;28;20947;-87
2022/04/26 14:35:11;;;;;;;3.20;2.20;;;13.80;99.90;;;;;;4957288;28;20210;-87
2022/04/26 14:37:38;;;;;;;3.45;2.40;;;;;;;;;;4965004;28;20433;-87
2022/04/26 14:40:05;;;;;;;8.23;3.20;;;14.20;99.90;;;;;;4967684;28;20175;-86
2022/04/26 14:42:31;;;;;;;3.93;2.60;;;14.00;99.90;;;;;;4980595;28;20514;-90
2022/04/26 14:44:57;;;;;;;3.77;2.70;;;;;;;;;;4961289;28;20490;-87
2022/04/26 14:47:26;;;;;;;3.40;2.63;;;13.80;99.90;;;;;;4963740;28;20431;-88
2022/04/26 14:49:52;;;;;;;3.03;2.27;;;;;;;;;;4965059;28;20443;-89
2022/04/26 14:52:21;;;;;;;3.40;2.77;;;;;;;;;;4967095;28;20510;-89
2022/04/26 14:54:47;;;;;;;4.60;2.50;;;;;;;;;;4962144;28;20455;-88
2022/04/26 14:57:13;;;;;;;3.13;2.83;;;;;;;;;;4958866;28;20431;-88
2022/04/26 14:59:46;;;;;;;3.00;2.63;;;;;;;;;;4961113;28;20508;-87
2022/04/26 15:02:12;;;;;;;3.10;2.27;;;;;;;;;;4956154;28;20435;-88
2022/04/26 15:04:39;;;;;;;3.90;3.20;;;;;;;;;;4960065;28;20470;-88
2022/04/26 15:07:05;;;;;;;3.65;2.75;;;;;;;;;;4957618;28;20438;-89
2022/04/26 15:09:42;;;;;;;4.95;3.42;;;;;;;;;;4958605;28;20195;-87
2022/04/26 15:17:43;;;;;;;3.00;2.53;;;11.80;99.90;;;;;;4963659;28;20194;-88
2022/04/26 15:20:09;;;;;;;3.08;2.20;;;11.80;99.90;;;;;;4964079;28;20183;-87
2022/04/26 15:22:37;;;;;;;2.58;2.08;;;;;;;;;;4966226;28;20195;-87
2022/04/26 15:25:05;;;;;;;2.50;2.20;;;11.80;99.90;;;;;;4971700;28;20242;-87
2022/04/26 15:27:31;;;;;;;2.63;2.35;;;;;;;;;;4979642;28;20196;-86
2022/04/26 15:29:57;;;;;;;2.20;2.00;;;;;;;;;;4974434;28;20196;-87
2022/04/26 15:32:23;;;;;;;3.97;2.50;;;;;;;;;;4987313;28;20207;-85
2022/04/26 15:34:49;;;;;;;3.83;3.10;;;11.20;99.90;;;;;;4985293;28;20192;-85
2022/04/26 15:37:15;;;;;;;3.50;3.20;;;11.20;99.90;;;;;;4982733;28;20187;-88
2022/04/26 15:39:42;;;;;;;7.53;4.80;;;;;;;;;;4993686;28;20183;-86
2022/04/26 15:42:08;;;;;;;4.30;3.90;;;10.60;99.90;;;;;;4977447;28;20943;-88
2022/04/26 15:44:35;;;;;;;5.45;3.90;;;;;;;;;;4972231;28;20207;-87
2022/04/26 15:47:01;;;;;;;4.65;3.40;;;;;;;;;;4970671;28;21303;-88
2022/04/26 15:49:28;;;;;;;3.67;3.30;;;;;;;;;;4970652;28;20215;-87
2022/04/26 15:51:56;;;;;;;4.70;3.03;;;;;;;;;;4964216;28;20475;-86
2022/04/26 15:54:22;;;;;;;2.80;2.40;;;;;;;;;;4965244;28;20256;-87
2022/04/26 15:56:48;;;;;;;3.10;2.50;;;;;;;;;;4972673;28;20260;-86
2022/04/26 15:59:14;;;;;;;5.03;1.90;;;;;;;;;;4973448;28;20530;-85
2022/04/26 16:01:40;;;;;;;2.10;1.73;;;10.60;99.90;;;;;;4974828;28;20963;-85
2022/04/26 16:04:09;;;;;;;2.50;2.30;;;10.60;99.90;;;;;;4967776;28;20454;-85
2022/04/26 16:06:37;;;;;;;2.05;1.85;;;;;;;;;;4968072;28;20188;-86
2022/04/26 16:22:45;;;;;;;3.85;1.92;;;11.00;99.90;;;;;;4968969;28;20250;-86
2022/04/26 16:25:11;;;;;;;2.83;1.80;;;10.90;99.90;;;;;;4971064;28;20227;-86
2022/04/26 16:27:36;;;;;;;2.80;2.50;;;10.80;99.90;;;;;;4963005;28;20199;-87
2022/04/26 16:30:03;;;;;;;3.93;3.03;;;;;;;;;;4971596;28;20191;-86
2022/04/26 16:32:29;;;;;;;7.53;2.90;;;;;;;;;;4982756;28;20210;-86
2022/04/26 16:34:57;;;;;;;4.60;2.83;;;10.40;99.90;;;;;;4973931;28;20782;-86
2022/04/26 16:37:23;;;;;;;7.18;3.40;;;;;;;;;;4971990;28;20657;-87
2022/04/26 16:39:49;;;;;;;4.05;2.65;;;10.50;99.90;;;;;;4974214;28;20195;-86
2022/04/26 16:42:15;;;;;;;3.13;2.83;;;;;;;;;;4969643;28;20192;-86
2022/04/26 16:44:41;;;;;;;3.33;3.00;;;;;;;;;;4964461;28;20207;-85
2022/04/26 16:47:07;;;;;;;5.15;2.35;;;11.20;99.90;;;;;;4982614;28;20867;-86
2022/04/26 16:49:33;;;;;;;2.63;1.93;;;;;;;;;;4960592;28;20195;-85
2022/04/26 16:51:59;;;;;;;4.40;1.90;;;11.20;99.90;;;;;;4971546;28;20489;-85
2022/04/26 16:54:25;;;;;;;3.33;3.00;;;;;;;;;;5003047;28;20574;-84
2022/04/26 16:56:51;;;;;;;3.30;2.00;;;;;;;;;;4975233;28;20462;-86
2022/04/26 16:59:17;;;;;;;2.90;2.30;;;;;;;;;;4974054;28;20629;-85
2022/04/26 17:01:44;;;;;;;4.03;2.50;;;10.50;99.90;;;;;;4969853;28;20966;-84
2022/04/26 17:04:13;;;;;;;4.72;2.15;;;;;;;;;;4971089;28;20180;-85
2022/04/26 17:06:39;;;;;;;4.45;3.35;;;10.30;99.90;;;;;;4959270;28;20176;-86
2022/04/26 17:09:05;;;;;;;4.63;2.38;;;10.10;99.90;;;;;;4963216;28;20234;-86
2022/04/26 17:11:43;;;;;;;6.33;2.80;;;10.20;99.90;;;;;;4964390;28;20274;-86
2022/04/26 17:14:16;;;;;;;5.35;3.10;;;10.10;99.90;;;;;;4963740;28;20439;-85
2022/04/26 17:16:46;;;;;;;3.97;3.08;;;10.10;99.90;;;;;;4961948;28;20192;-85
2022/04/26 17:19:13;;;;;;;5.45;3.53;;;10.00;99.90;;;;;;4964059;28;20252;-88
2022/04/26 17:21:39;;;;;;;5.38;3.42;;;9.90;99.90;;;;;;4967031;28;20195;-88
2022/04/26 17:25:13;;;;;;;5.35;3.60;;;9.80;99.90;;;;;;4969188;28;20186;-88
2022/04/26 17:26:51;;;;;;;3.00;2.42;;;9.70;99.90;;;;;;4973484;28;20202;-86
2022/04/26 17:29:19;;;;;;;3.67;2.85;;;9.70;99.90;;;;;;4978678;28;20219;-86
2022/04/26 17:31:51;;;;;;;5.35;2.83;;;9.70;99.90;;;;;;4969923;28;20966;-85
2022/04/26 17:34:21;;;;;;;2.45;2.10;;;9.60;99.90;;;;;;4975200;28;20217;-88
2022/04/26 17:36:47;;;;;;;4.82;2.30;;;9.60;99.90;;;;;;4975389;28;20219;-86